Time;durP1;ratioP1;P1;durP2;ratioP2;P2;SDS_P1;SDS_P2;PMS_P1;PMS_P2;Temp;Humidity;BMP_temperature;BMP_pressure;BME280_temperature;BME280_humidity;BME280_pressure;Samples;Min_cycle;Max_cycle;Signal;HPM_P1;HPM_P2
2022/08/27 00:01:25;;;;;;;;;;;;;;;22.08;29.66;97300.91;4936116;29;984;-78
2022/08/27 00:03:52;;;;;;;;;;;;;;;22.14;29.66;97298.28;4936240;29;874;-78
2022/08/27 00:06:18;;;;;;;;;;;;;;;22.04;29.76;97294.59;4936508;29;1017;-78
2022/08/27 00:08:43;;;;;;;;;;;;;;;21.85;30.13;97300.13;4936573;29;1027;-78
2022/08/27 00:11:09;;;;;;;;;;;;;;;21.84;30.16;97298.56;4920445;29;1981;-79
2022/08/27 00:13:35;;;;;;;;;;;;;;;21.84;29.83;97295.75;4936059;29;951;-78
2022/08/27 00:16:01;;;;;;;;;;;;;;;21.97;30.08;97301.31;4904762;29;1001;-78
2022/08/27 00:18:26;;;;;;;;;;;;;;;22.16;29.81;97296.53;4936205;29;926;-78
2022/08/27 00:20:52;;;;;;;;;;;;;;;22.14;29.74;97292.63;4904455;29;1071;-78
2022/08/27 00:23:17;;;;;;;;;;;;;;;22.06;29.64;97292.06;4936018;29;903;-78
2022/08/27 00:25:44;;;;;;;;;;;;;;;21.97;29.89;97295.66;4935956;29;1186;-78
2022/08/27 00:28:09;;;;;;;;;;;;;;;21.94;29.86;97298.63;4936146;29;952;-78
2022/08/27 00:30:34;;;;;;;;;;;;;;;21.82;30.11;97295.41;4936314;29;1923;-77
2022/08/27 00:33:00;;;;;;;;;;;;;;;22.05;29.74;97301.81;4966694;28;946;-78
2022/08/27 00:35:25;;;;;;;;;;;;;;;21.88;29.89;97303.31;4977183;28;851;-78
2022/08/27 00:37:51;;;;;;;;;;;;;;;22.12;29.65;97301.56;4976825;28;909;-78
2022/08/27 00:40:18;;;;;;;;;;;;;;;22.04;29.62;97305.91;4976702;28;909;-77
2022/08/27 00:42:44;;;;;;;;;;;;;;;21.99;29.95;97304.47;4955289;29;964;-77
2022/08/27 00:45:10;;;;;;;;;;;;;;;21.85;29.96;97311.47;4941788;29;989;-77
2022/08/27 00:47:38;;;;;;;;;;;;;;;22.05;29.74;97311.09;4943616;29;947;-77
2022/08/27 00:50:05;;;;;;;;;;;;;;;22.21;29.36;97314.97;4942858;29;1965;-77
2022/08/27 00:52:32;;;;;;;;;;;;;;;22.17;29.40;97320.78;4942830;29;943;-77
2022/08/27 00:54:58;;;;;;;;;;;;;;;22.22;29.32;97317.34;4942865;29;934;-78
2022/08/27 00:57:24;;;;;;;;;;;;;;;22.22;29.51;97311.69;4942984;29;1130;-78
2022/08/27 00:59:49;;;;;;;;;;;;;;;21.90;30.09;97312.91;4943425;29;947;-77
2022/08/27 01:02:17;;;;;;;;;;;;;;;22.25;29.58;97310.75;4958569;29;951;-78
2022/08/27 01:04:43;;;;;;;;;;;;;;;22.08;29.73;97317.91;4958793;29;1112;-78
2022/08/27 01:07:09;;;;;;;;;;;;;;;21.99;29.98;97315.81;4942598;29;1248;-78
2022/08/27 01:09:34;;;;;;;;;;;;;;;21.88;29.97;97314.66;4958456;29;918;-78
2022/08/27 01:12:00;;;;;;;;;;;;;;;22.07;29.67;97316.31;4958472;29;1918;-78
2022/08/27 01:14:26;;;;;;;;;;;;;;;21.89;30.25;97300.00;4958563;28;1003;-77
2022/08/27 01:16:53;;;;;;;;;;;;;;;22.18;29.81;97304.59;4962966;28;931;-78
2022/08/27 01:19:24;;;;;;;;;;;;;;;22.15;29.58;97306.31;4962980;28;845;-77
2022/08/27 01:21:54;;;;;;;;;;;;;;;21.94;29.89;97307.13;4980455;28;1052;-78
2022/08/27 01:24:26;;;;;;;;;;;;;;;21.93;30.15;97305.53;4962429;28;1044;-77
2022/08/27 01:26:52;;;;;;;;;;;;;;;22.03;29.78;97310.00;4962967;28;947;-78
2022/08/27 01:29:17;;;;;;;;;;;;;;;21.88;29.93;97314.66;4961406;28;999;-77
2022/08/27 01:31:43;;;;;;;;;;;;;;;22.12;29.67;97312.88;4962485;28;1982;-78
2022/08/27 01:34:08;;;;;;;;;;;;;;;21.99;29.65;97309.34;4961418;28;977;-77
2022/08/27 01:36:33;;;;;;;;;;;;;;;22.02;29.56;97314.06;4946491;28;1039;-78
2022/08/27 01:38:59;;;;;;;;;;;;;;;22.12;29.40;97307.22;4961337;28;1015;-78
2022/08/27 01:41:24;;;;;;;;;;;;;;;22.20;29.59;97317.03;4979796;28;953;-78
2022/08/27 01:43:50;;;;;;;;;;;;;;;22.18;29.53;97304.59;4979319;28;908;-78
2022/08/27 01:46:25;;;;;;;;;;;;;;;22.08;29.81;97312.22;4922961;29;932;-78
2022/08/27 01:48:50;;;;;;;;;;;;;;;21.99;29.60;97303.69;4922566;29;971;-77
2022/08/27 01:51:16;;;;;;;;;;;;;;;22.22;29.45;97317.34;4922694;29;1974;-78
2022/08/27 01:53:41;;;;;;;;;;;;;;;22.12;29.76;97317.78;4922853;29;933;-78
2022/08/27 01:56:07;;;;;;;;;;;;;;;21.98;29.78;97302.13;4922293;29;977;-77
2022/08/27 01:58:33;;;;;;;;;;;;;;;21.89;30.11;97307.72;4938690;29;965;-77
2022/08/27 02:01:02;;;;;;;;;;;;;;;22.02;29.84;97305.56;4868827;29;925;-78
2022/08/27 02:03:28;;;;;;;;;;;;;;;22.03;29.80;97310.00;4900333;29;1050;-77
2022/08/27 02:05:53;;;;;;;;;;;;;;;22.08;29.70;97310.19;4900264;29;996;-78
2022/08/27 02:08:19;;;;;;;;;;;;;;;21.75;29.94;97309.84;4884864;29;1028;-78
2022/08/27 02:10:45;;;;;;;;;;;;;;;21.92;29.77;97309.63;4899990;29;1931;-77
2022/08/27 02:13:12;;;;;;;;;;;;;;;22.02;29.53;97303.56;4900600;29;993;-79
2022/08/27 02:15:37;;;;;;;;;;;;;;;21.98;29.92;97310.59;4900068;29;933;-78
2022/08/27 02:18:03;;;;;;;;;;;;;;;22.02;29.76;97302.75;4900236;29;990;-78
2022/08/27 02:20:30;;;;;;;;;;;;;;;21.95;29.90;97309.47;4900368;29;1063;-78
2022/08/27 02:22:55;;;;;;;;;;;;;;;21.84;30.04;97306.28;4887571;29;1175;-78
2022/08/27 02:25:21;;;;;;;;;;;;;;;21.92;29.89;97312.47;4918988;29;1067;-78
2022/08/27 02:27:47;;;;;;;;;;;;;;;21.94;30.16;97307.13;4918755;29;976;-78
2022/08/27 02:30:13;;;;;;;;;;;;;;;22.03;29.75;97310.00;4918599;29;1894;-77
2022/08/27 02:32:38;;;;;;;;;;;;;;;22.11;29.94;97314.16;4918837;29;936;-78
2022/08/27 02:35:04;;;;;;;;;;;;;;;21.65;30.46;97310.25;4918535;29;1052;-78
2022/08/27 02:37:30;;;;;;;;;;;;;;;21.95;29.81;97314.34;4918714;29;937;-78
2022/08/27 02:39:55;;;;;;;;;;;;;;;22.14;29.66;97320.94;4919035;29;969;-78
2022/08/27 02:42:20;;;;;;;;;;;;;;;21.98;30.08;97307.78;4918534;29;1100;-78
2022/08/27 02:44:46;;;;;;;;;;;;;;;21.93;30.20;97316.88;4918535;29;1017;-78
2022/08/27 02:47:11;;;;;;;;;;;;;;;21.99;29.99;97312.19;4918742;29;861;-77
2022/08/27 02:49:37;;;;;;;;;;;;;;;21.87;30.03;97318.75;4918584;29;1212;-77
2022/08/27 02:52:02;;;;;;;;;;;;;;;21.91;29.75;97313.69;4902834;29;1926;-77
2022/08/27 02:54:28;;;;;;;;;;;;;;;22.08;30.01;97312.22;4944792;28;1493;-78
2022/08/27 02:56:53;;;;;;;;;;;;;;;22.05;29.78;97318.81;4959996;28;969;-77
2022/08/27 02:59:20;;;;;;;;;;;;;;;22.06;29.86;97317.56;4976063;28;983;-77
2022/08/27 03:01:45;;;;;;;;;;;;;;;22.22;29.51;97310.88;4959964;28;827;-79
2022/08/27 03:04:11;;;;;;;;;;;;;;;22.16;29.65;97319.22;4943555;28;968;-78
2022/08/27 03:06:36;;;;;;;;;;;;;;;22.12;29.83;97318.56;4960055;28;939;-78
2022/08/27 03:09:02;;;;;;;;;;;;;;;22.09;29.70;97319.47;4961222;28;1068;-78
2022/08/27 03:11:28;;;;;;;;;;;;;;;22.20;29.64;97319.88;4978105;28;1914;-78
2022/08/27 03:13:53;;;;;;;;;;;;;;;22.03;29.86;97321.34;4977926;28;1069;-78
2022/08/27 03:16:18;;;;;;;;;;;;;;;22.06;29.70;97321.19;4977828;28;854;-78
2022/08/27 03:18:44;;;;;;;;;;;;;;;21.97;29.81;97323.19;4978013;28;1156;-78
2022/08/27 03:21:15;;;;;;;;;;;;;;;21.88;30.12;97325.97;4978293;28;905;-78
2022/08/27 03:23:40;;;;;;;;;;;;;;;21.90;29.87;97329.91;4977856;28;1115;-78
2022/08/27 03:26:06;;;;;;;;;;;;;;;22.05;29.81;97330.16;4921095;29;1103;-77
2022/08/27 03:28:32;;;;;;;;;;;;;;;21.90;30.16;97337.63;4934342;29;1011;-79
2022/08/27 03:30:59;;;;;;;;;;;;;;;21.96;29.96;97333.72;4936949;29;1981;-78
2022/08/27 03:33:26;;;;;;;;;;;;;;;22.08;29.60;97332.84;4921175;29;956;-78
2022/08/27 03:35:51;;;;;;;;;;;;;;;21.87;29.85;97341.41;4898635;29;1004;-78
2022/08/27 03:38:16;;;;;;;;;;;;;;;22.10;29.46;97327.53;4899345;29;945;-78
2022/08/27 03:40:42;;;;;;;;;;;;;;;22.14;29.49;97344.41;4867716;29;1171;-78
2022/08/27 03:43:08;;;;;;;;;;;;;;;22.00;29.70;97333.59;4898811;29;957;-78
2022/08/27 03:45:33;;;;;;;;;;;;;;;21.84;30.10;97335.38;4898609;29;1179;-79
2022/08/27 03:47:59;;;;;;;;;;;;;;;22.08;30.13;97346.22;4898912;29;1193;-78
2022/08/27 03:50:24;;;;;;;;;;;;;;;21.91;29.93;97331.47;4898888;29;1984;-78
2022/08/27 03:52:50;;;;;;;;;;;;;;;22.07;29.84;97334.13;4898826;29;920;-78
2022/08/27 03:55:15;;;;;;;;;;;;;;;21.89;29.99;97344.53;4898399;29;1019;-78
2022/08/27 03:57:41;;;;;;;;;;;;;;;21.98;29.85;97347.44;4926980;29;958;-77
2022/08/27 04:00:09;;;;;;;;;;;;;;;21.97;30.18;97345.88;4920651;29;1219;-78
2022/08/27 04:02:37;;;;;;;;;;;;;;;21.94;29.97;97341.09;4891131;29;974;-77
2022/08/27 04:05:03;;;;;;;;;;;;;;;21.98;29.95;97341.78;4936428;29;929;-78
2022/08/27 04:07:29;;;;;;;;;;;;;;;22.11;29.83;97345.31;4967477;28;1166;-79
2022/08/27 04:09:54;;;;;;;;;;;;;;;21.88;29.89;97337.31;4959819;28;893;-78
2022/08/27 04:12:20;;;;;;;;;;;;;;;22.18;29.57;97332.94;4977594;28;1989;-77
2022/08/27 04:14:45;;;;;;;;;;;;;;;22.06;29.64;97335.34;4977263;28;898;-78
2022/08/27 04:17:11;;;;;;;;;;;;;;;22.18;29.70;97345.06;4977273;28;948;-78
2022/08/27 04:19:36;;;;;;;;;;;;;;;21.89;30.02;97339.66;4980848;28;980;-77
2022/08/27 04:22:02;;;;;;;;;;;;;;;21.94;30.08;97339.06;4983343;28;936;-77
2022/08/27 04:24:29;;;;;;;;;;;;;;;22.11;30.01;97342.47;4983217;28;1306;-78
2022/08/27 04:26:54;;;;;;;;;;;;;;;21.90;30.43;97334.78;4983334;28;973;-78
2022/08/27 04:29:19;;;;;;;;;;;;;;;22.23;29.52;97341.63;4983142;28;895;-77
2022/08/27 04:31:45;;;;;;;;;;;;;;;22.15;29.74;97337.47;4982934;28;1902;-77
2022/08/27 04:34:10;;;;;;;;;;;;;;;22.08;29.78;97340.56;4983022;28;808;-77
2022/08/27 04:36:36;;;;;;;;;;;;;;;22.02;29.78;97342.41;4983249;28;708;-77
2022/08/27 04:39:02;;;;;;;;;;;;;;;22.06;29.71;97331.72;4983002;28;783;-77
2022/08/27 04:41:32;;;;;;;;;;;;;;;22.02;30.08;97342.41;4982904;28;810;-77
2022/08/27 04:44:03;;;;;;;;;;;;;;;21.92;29.87;97340.78;4966168;28;764;-78
2022/08/27 04:46:30;;;;;;;;;;;;;;;21.89;30.25;97344.53;4982868;28;844;-78
2022/08/27 04:48:56;;;;;;;;;;;;;;;22.09;29.68;97347.81;4982908;28;771;-78
2022/08/27 04:51:21;;;;;;;;;;;;;;;22.06;29.70;97343.06;4964904;28;1977;-78
2022/08/27 04:53:47;;;;;;;;;;;;;;;22.03;29.66;97339.13;4983296;28;901;-78
2022/08/27 04:56:13;;;;;;;;;;;;;;;22.02;29.72;97336.72;4983559;28;1104;-78
2022/08/27 04:58:38;;;;;;;;;;;;;;;21.95;29.79;97334.97;4983807;28;888;-78
2022/08/27 05:01:04;;;;;;;;;;;;;;;21.70;30.54;97338.75;4982879;28;973;-78
2022/08/27 05:03:29;;;;;;;;;;;;;;;21.86;30.29;97351.91;4983255;28;885;-78
2022/08/27 05:05:58;;;;;;;;;;;;;;;21.88;30.38;97348.63;4982832;28;905;-78
2022/08/27 05:08:23;;;;;;;;;;;;;;;22.13;29.49;97347.72;4983299;28;846;-78
2022/08/27 05:10:49;;;;;;;;;;;;;;;21.84;29.98;97349.53;4983169;28;1899;-78
2022/08/27 05:13:17;;;;;;;;;;;;;;;21.92;30.09;97350.09;4983160;28;956;-79
2022/08/27 05:15:42;;;;;;;;;;;;;;;22.06;29.69;97348.72;4961541;28;997;-79
2022/08/27 05:18:08;;;;;;;;;;;;;;;22.04;29.97;97351.25;4961353;29;961;-79
2022/08/27 05:20:33;;;;;;;;;;;;;;;22.21;29.33;97361.09;4961298;28;879;-79
2022/08/27 05:22:59;;;;;;;;;;;;;;;22.02;29.96;97365.88;4945444;28;965;-79
2022/08/27 05:25:24;;;;;;;;;;;;;;;22.04;29.70;97362.56;4961222;28;1282;-78
2022/08/27 05:27:50;;;;;;;;;;;;;;;21.87;29.84;97366.88;4961155;29;1044;-78
2022/08/27 05:30:15;;;;;;;;;;;;;;;22.04;29.50;97363.34;4960368;28;1902;-79
2022/08/27 05:32:41;;;;;;;;;;;;;;;21.99;29.57;97366.78;4958275;29;999;-79
2022/08/27 05:35:08;;;;;;;;;;;;;;;21.78;29.89;97374.06;4958487;28;1094;-79
2022/08/27 05:37:33;;;;;;;;;;;;;;;22.03;29.55;97366.66;4958273;29;940;-78
2022/08/27 05:39:59;;;;;;;;;;;;;;;22.05;29.41;97369.81;4958377;29;1099;-79
2022/08/27 05:42:25;;;;;;;;;;;;;;;21.94;29.75;97375.09;4957726;29;1004;-79
2022/08/27 05:44:50;;;;;;;;;;;;;;;22.09;29.55;97367.63;4957643;29;927;-78
2022/08/27 05:47:16;;;;;;;;;;;;;;;22.25;29.29;97373.09;4914875;29;989;-79
2022/08/27 05:49:41;;;;;;;;;;;;;;;21.88;29.65;97379.78;4919593;29;975;-79
2022/08/27 05:52:08;;;;;;;;;;;;;;;21.99;29.72;97372.47;4919529;29;1922;-79
2022/08/27 05:54:34;;;;;;;;;;;;;;;22.05;29.39;97381.16;4900789;29;965;-79
2022/08/27 05:56:59;;;;;;;;;;;;;;;21.77;29.85;97386.63;4900540;29;1049;-79
2022/08/27 06:02:09;;;;;;;;;;;;;;;22.04;29.65;97386.03;4900523;29;1032;-78
2022/08/27 06:04:35;;;;;;;;;;;;;;;21.98;30.01;97385.03;4900616;29;1004;-79
2022/08/27 06:07:00;;;;;;;;;;;;;;;21.76;30.21;97393.56;4863271;29;995;-79
2022/08/27 06:09:28;;;;;;;;;;;;;;;22.05;29.88;97386.81;4863349;29;946;-78
2022/08/27 06:11:54;;;;;;;;;;;;;;;21.92;30.13;97378.41;4862873;29;1907;-78
2022/08/27 06:14:19;;;;;;;;;;;;;;;22.31;29.37;97393.13;4826523;29;915;-78
2022/08/27 06:16:45;;;;;;;;;;;;;;;22.10;30.00;97394.72;4825997;29;933;-79
2022/08/27 06:19:11;;;;;;;;;;;;;;;22.22;29.84;97401.56;4842066;29;956;-78
2022/08/27 06:21:36;;;;;;;;;;;;;;;22.03;29.86;97400.66;4844804;29;1130;-78
2022/08/27 06:24:02;;;;;;;;;;;;;;;22.09;29.82;97398.81;4844226;29;1089;-79
2022/08/27 06:26:27;;;;;;;;;;;;;;;22.16;29.84;97398.53;4876623;29;999;-78
2022/08/27 06:28:54;;;;;;;;;;;;;;;22.02;29.85;97416.06;4881611;29;1079;-78
2022/08/27 06:31:21;;;;;;;;;;;;;;;22.09;29.90;97407.31;4862415;29;1907;-79
2022/08/27 06:33:47;;;;;;;;;;;;;;;22.04;29.82;97422.06;4843902;29;965;-79
2022/08/27 06:36:13;;;;;;;;;;;;;;;22.16;29.68;97420.44;4844083;29;977;-78
2022/08/27 06:38:39;;;;;;;;;;;;;;;22.06;29.96;97422.38;4793925;29;1052;-78
2022/08/27 06:41:05;;;;;;;;;;;;;;;22.26;30.05;97419.22;4789787;29;963;-78
2022/08/27 06:43:30;;;;;;;;;;;;;;;22.12;30.32;97414.09;4806435;29;1045;-79
2022/08/27 06:45:56;;;;;;;;;;;;;;;21.99;30.20;97412.13;4816338;29;1016;-78
2022/08/27 06:48:21;;;;;;;;;;;;;;;22.05;30.23;97420.81;4807322;29;931;-78
2022/08/27 06:50:47;;;;;;;;;;;;;;;22.12;30.28;97414.88;4810292;29;1984;-79
2022/08/27 06:53:12;;;;;;;;;;;;;;;22.22;30.13;97425.03;4843906;29;1086;-78
2022/08/27 06:55:41;;;;;;;;;;;;;;;22.17;30.09;97433.34;4843511;29;998;-79
2022/08/27 06:58:07;;;;;;;;;;;;;;;22.25;30.24;97423.31;4843597;29;937;-78
2022/08/27 07:00:32;;;;;;;;;;;;;;;22.25;29.82;97424.13;4843599;29;946;-78
2022/08/27 07:02:58;;;;;;;;;;;;;;;21.97;30.35;97430.84;4829777;29;1101;-78
2022/08/27 07:05:24;;;;;;;;;;;;;;;22.02;30.52;97427.38;4852874;29;971;-79
2022/08/27 07:07:50;;;;;;;;;;;;;;;21.99;30.82;97434.78;4827990;29;965;-79
2022/08/27 07:10:15;;;;;;;;;;;;;;;22.09;30.49;97432.81;4856980;29;1054;-79
2022/08/27 07:12:41;;;;;;;;;;;;;;;22.35;30.23;97445.59;4862078;29;1915;-79
2022/08/27 07:15:07;;;;;;;;;;;;;;;22.32;30.25;97440.03;4835751;29;1025;-79
2022/08/27 07:17:32;;;;;;;;;;;;;;;22.06;30.49;97443.00;4894377;29;1003;-78
2022/08/27 07:19:57;;;;;;;;;;;;;;;21.95;30.56;97445.44;4899263;29;952;-78
2022/08/27 07:22:23;;;;;;;;;;;;;;;22.18;30.34;97447.06;4903599;29;963;-79
2022/08/27 07:24:50;;;;;;;;;;;;;;;22.30;30.01;97432.00;4955806;28;1055;-79
2022/08/27 07:27:16;;;;;;;;;;;;;;;22.23;30.11;97443.63;4956145;28;961;-78
2022/08/27 07:29:42;;;;;;;;;;;;;;;22.25;30.43;97446.00;4955909;28;871;-78
2022/08/27 07:32:07;;;;;;;;;;;;;;;22.08;30.86;97445.38;4917244;29;1906;-77
2022/08/27 07:34:32;;;;;;;;;;;;;;;22.07;30.76;97441.78;4898747;29;898;-78
2022/08/27 07:36:58;;;;;;;;;;;;;;;22.03;30.66;97446.00;4898607;29;988;-78
2022/08/27 07:39:23;;;;;;;;;;;;;;;22.11;30.63;97444.47;4885098;29;911;-78
2022/08/27 07:44:33;;;;;;;;;;;;;;;22.23;30.51;97443.63;4879770;29;1208;-78
2022/08/27 07:46:58;;;;;;;;;;;;;;;22.07;30.63;97446.63;4879895;29;992;-77
2022/08/27 07:49:24;;;;;;;;;;;;;;;22.25;30.48;97438.28;4879968;29;969;-78
2022/08/27 07:51:50;;;;;;;;;;;;;;;22.31;30.28;97444.13;4861512;29;1911;-78
2022/08/27 07:54:15;;;;;;;;;;;;;;;22.10;30.87;97440.84;4860384;29;1063;-79
2022/08/27 07:56:41;;;;;;;;;;;;;;;22.14;30.75;97445.63;4861208;29;1586;-78
2022/08/27 07:59:07;;;;;;;;;;;;;;;22.32;30.43;97446.50;4861388;29;954;-78
2022/08/27 08:01:32;;;;;;;;;;;;;;;22.20;30.38;97450.22;4861172;29;1003;-77
2022/08/27 08:03:57;;;;;;;;;;;;;;;22.19;30.59;97454.31;4877255;29;954;-78
2022/08/27 08:06:23;;;;;;;;;;;;;;;22.36;30.37;97447.16;4895463;29;991;-78
2022/08/27 08:08:48;;;;;;;;;;;;;;;22.23;30.46;97454.19;4930668;29;1003;-78
2022/08/27 08:11:14;;;;;;;;;;;;;;;22.23;30.57;97449.31;4936521;29;1914;-79
2022/08/27 08:13:40;;;;;;;;;;;;;;;22.35;30.14;97461.81;4936408;29;965;-79
2022/08/27 08:16:05;;;;;;;;;;;;;;;22.28;30.23;97451.53;4936155;29;945;-79
2022/08/27 08:18:31;;;;;;;;;;;;;;;22.26;30.52;97459.69;4936096;29;1044;-78
2022/08/27 08:21:03;;;;;;;;;;;;;;;22.09;30.64;97455.47;4936155;29;918;-78
2022/08/27 08:23:28;;;;;;;;;;;;;;;22.14;30.73;97448.44;4967506;28;941;-79
2022/08/27 08:25:54;;;;;;;;;;;;;;;22.40;30.15;97451.91;4976549;28;1070;-78
2022/08/27 08:28:19;;;;;;;;;;;;;;;22.25;30.38;97452.44;4977007;28;833;-78
2022/08/27 08:30:46;;;;;;;;;;;;;;;22.18;30.61;97451.94;4976761;28;1899;-78
2022/08/27 08:33:12;;;;;;;;;;;;;;;22.19;30.52;97454.31;4976940;28;912;-78
2022/08/27 08:35:38;;;;;;;;;;;;;;;22.26;30.71;97454.03;4976793;28;927;-78
2022/08/27 08:38:03;;;;;;;;;;;;;;;22.34;30.45;97448.91;4955217;29;962;-78
2022/08/27 08:40:29;;;;;;;;;;;;;;;22.21;30.77;97457.47;4955335;29;951;-78
2022/08/27 08:42:55;;;;;;;;;;;;;;;22.31;30.29;97459.09;4955326;29;1023;-78
2022/08/27 08:45:23;;;;;;;;;;;;;;;22.42;30.48;97450.19;4955379;29;839;-78
2022/08/27 08:47:52;;;;;;;;;;;;;;;22.40;30.51;97449.09;4939450;29;885;-78
2022/08/27 08:50:36;;;;;;;;;;;;;;;22.29;30.36;97441.78;4939234;29;926;-78
2022/08/27 08:53:06;;;;;;;;;;;;;;;22.07;30.78;97452.28;4954732;29;1001;-79
2022/08/27 08:55:32;;;;;;;;;;;;;;;22.39;30.27;97447.50;4954386;29;903;-79
2022/08/27 08:57:57;;;;;;;;;;;;;;;22.40;30.32;97447.03;4954839;29;988;-78
2022/08/27 09:00:23;;;;;;;;;;;;;;;22.19;30.78;97445.03;4954856;29;1139;-78
2022/08/27 09:02:53;;;;;;;;;;;;;;;22.03;30.79;97446.00;4916574;29;923;-79
2022/08/27 09:05:19;;;;;;;;;;;;;;;22.31;30.53;97444.94;4898448;29;1046;-77
2022/08/27 09:07:53;;;;;;;;;;;;;;;22.32;30.60;97440.84;4901448;29;984;-79
2022/08/27 09:10:18;;;;;;;;;;;;;;;22.31;30.46;97444.13;4901532;29;999;-79
2022/08/27 09:12:44;;;;;;;;;;;;;;;22.23;30.79;97443.63;4901283;29;1970;-78
2022/08/27 09:15:13;;;;;;;;;;;;;;;22.36;30.34;97452.84;4901238;29;951;-79
2022/08/27 09:17:40;;;;;;;;;;;;;;;22.42;30.46;97449.41;4885528;29;954;-79
2022/08/27 09:20:07;;;;;;;;;;;;;;;22.06;30.76;97450.72;4863875;29;1013;-78
2022/08/27 09:22:37;;;;;;;;;;;;;;;22.19;30.68;97448.63;4864010;29;1060;-79
2022/08/27 09:25:06;;;;;;;;;;;;;;;22.28;30.31;97456.41;4863485;29;1264;-79
2022/08/27 09:27:35;;;;;;;;;;;;;;;22.21;30.34;97457.47;4826673;29;913;-78
2022/08/27 09:30:04;;;;;;;;;;;;;;;22.18;30.57;97455.56;4826950;29;974;-78
2022/08/27 09:32:31;;;;;;;;;;;;;;;22.13;30.61;97456.16;4826258;29;1915;-79
2022/08/27 09:34:57;;;;;;;;;;;;;;;22.24;30.50;97452.91;4862499;29;1006;-78
2022/08/27 09:37:32;;;;;;;;;;;;;;;22.27;30.60;97449.16;4880966;29;951;-78
2022/08/27 09:40:06;;;;;;;;;;;;;;;22.20;30.38;97447.38;4882461;29;934;-78
2022/08/27 09:42:42;;;;;;;;;;;;;;;22.23;30.49;97443.63;4882031;29;982;-78
2022/08/27 09:45:09;;;;;;;;;;;;;;;22.16;30.55;97451.59;4881794;29;934;-77
2022/08/27 09:47:41;;;;;;;;;;;;;;;22.14;30.61;97446.41;4881395;29;1064;-77
2022/08/27 09:50:07;;;;;;;;;;;;;;;22.18;30.51;97451.94;4881966;29;1019;-78
2022/08/27 09:52:34;;;;;;;;;;;;;;;22.26;30.35;97448.34;4881263;29;1988;-78
2022/08/27 09:54:59;;;;;;;;;;;;;;;22.36;30.30;97437.88;4844901;29;1010;-79
2022/08/27 09:57:29;;;;;;;;;;;;;;;22.42;30.17;97444.50;4843775;29;968;-78
2022/08/27 09:59:54;;;;;;;;;;;;;;;22.41;30.45;97436.47;4844641;29;1027;-78
2022/08/27 10:02:21;;;;;;;;;;;;;;;22.27;30.55;97443.47;4808519;29;963;-78
2022/08/27 10:04:46;;;;;;;;;;;;;;;22.30;30.22;97437.69;4781045;29;1057;-78
2022/08/27 10:07:15;;;;;;;;;;;;;;;22.35;30.47;97437.09;4826041;29;877;-79
2022/08/27 10:09:42;;;;;;;;;;;;;;;22.16;30.62;97443.88;4811495;29;1092;-78
2022/08/27 10:12:12;;;;;;;;;;;;;;;22.26;30.72;97445.53;4789358;29;1915;-79
2022/08/27 10:14:46;;;;;;;;;;;;;;;21.89;31.20;97438.78;4790253;30;1007;-77
2022/08/27 10:17:15;;;;;;;;;;;;;;;21.96;31.33;97429.22;4802333;29;1829;-77
2022/08/27 10:19:45;;;;;;;;;;;;;;;22.45;30.53;97431.47;4824994;29;1084;-78
2022/08/27 10:22:30;;;;;;;;;;;;;;;22.28;30.36;97434.53;4811068;29;937;-77
2022/08/27 10:25:00;;;;;;;;;;;;;;;22.33;30.64;97436.78;4827806;29;1042;-78
2022/08/27 10:27:28;;;;;;;;;;;;;;;22.49;30.21;97443.47;4862858;29;946;-78
2022/08/27 10:30:00;;;;;;;;;;;;;;;22.40;30.40;97434.91;4862263;29;992;-78
2022/08/27 10:32:34;;;;;;;;;;;;;;;22.41;30.45;97437.28;4846318;29;1912;-78
2022/08/27 10:35:00;;;;;;;;;;;;;;;22.21;30.66;97440.47;4847216;29;893;-78
2022/08/27 10:37:25;;;;;;;;;;;;;;;22.28;30.56;97437.38;4878790;29;1511;-78
2022/08/27 10:39:58;;;;;;;;;;;;;;;22.47;30.29;97445.97;4861462;29;1301;-78
2022/08/27 10:42:27;;;;;;;;;;;;;;;22.55;30.12;97445.22;4852521;29;1153;-77
2022/08/27 10:45:14;;;;;;;;;;;;;;;22.50;30.04;97445.03;4889733;29;1257;-79
2022/08/27 10:47:42;;;;;;;;;;;;;;;22.32;30.48;97443.66;4896702;29;1206;-79
2022/08/27 10:50:34;;;;;;;;;;;;;;;22.33;30.59;97439.59;4926539;29;1247;-79
2022/08/27 10:53:07;;;;;;;;;;;;;;;22.42;30.39;97438.06;4867760;29;1322;-78
2022/08/27 10:55:36;;;;;;;;;;;;;;;22.38;30.45;97441.03;4833751;29;1167;-79
2022/08/27 10:58:01;;;;;;;;;;;;;;;22.31;30.42;97433.59;4818047;29;1191;-78
2022/08/27 11:00:30;;;;;;;;;;;;;;;22.27;30.67;97438.59;4835146;29;1556;-79
2022/08/27 11:02:57;;;;;;;;;;;;;;;22.40;30.33;97440.56;4818082;29;1357;-77
2022/08/27 11:05:26;;;;;;;;;;;;;;;22.15;30.72;97439.47;4810735;29;1289;-78
2022/08/27 11:07:52;;;;;;;;;;;;;;;22.43;30.31;97434.75;4833794;29;1037;-78
2022/08/27 11:10:22;;;;;;;;;;;;;;;22.45;30.38;97442.81;4806665;29;977;-78
2022/08/27 11:12:48;;;;;;;;;;;;;;;22.21;30.73;97446.13;4824952;29;1908;-78
2022/08/27 11:15:18;;;;;;;;;;;;;;;22.44;30.55;97435.56;4810106;29;986;-77
2022/08/27 11:17:53;;;;;;;;;;;;;;;22.36;30.57;97435.03;4828865;29;1161;-79
2022/08/27 11:20:48;;;;;;;;;;;;;;;22.34;30.62;97438.34;4861854;29;1111;-78
2022/08/27 11:23:15;;;;;;;;;;;;;;;22.49;30.27;97443.47;4806631;29;1170;-78
2022/08/27 11:25:49;;;;;;;;;;;;;;;22.26;30.59;97428.53;4809367;29;1183;-78
2022/08/27 11:28:15;;;;;;;;;;;;;;;22.38;30.52;97434.56;4809656;29;1167;-77
2022/08/27 11:31:04;;;;;;;;;;;;;;;22.63;30.14;97425.88;4840502;29;1903;-78
2022/08/27 11:33:32;;;;;;;;;;;;;;;22.50;30.22;97428.03;4806729;29;1036;-78
2022/08/27 11:36:00;;;;;;;;;;;;;;;22.30;30.54;97432.00;4806752;29;982;-78
2022/08/27 11:38:33;;;;;;;;;;;;;;;22.42;30.42;97426.72;4806537;29;1032;-78
2022/08/27 11:41:04;;;;;;;;;;;;;;;22.29;30.71;97427.59;4800019;29;938;-78
2022/08/27 11:43:31;;;;;;;;;;;;;;;22.47;30.15;97420.44;4795424;29;998;-78
2022/08/27 11:46:01;;;;;;;;;;;;;;;22.27;30.65;97427.25;4806472;29;986;-78
2022/08/27 11:48:30;;;;;;;;;;;;;;;22.43;30.38;97422.63;4806692;29;972;-78
2022/08/27 11:51:00;;;;;;;;;;;;;;;22.51;30.34;97415.44;4806436;29;1903;-78
2022/08/27 11:53:30;;;;;;;;;;;;;;;22.29;30.67;97419.09;4787929;30;1252;-78
2022/08/27 11:55:55;;;;;;;;;;;;;;;22.43;30.54;97416.94;4717460;30;991;-78
2022/08/27 11:58:21;;;;;;;;;;;;;;;22.24;30.99;97422.53;4717466;30;974;-78
2022/08/27 12:00:47;;;;;;;;;;;;;;;22.38;30.59;97431.72;4719691;30;975;-78
2022/08/27 12:03:18;;;;;;;;;;;;;;;22.32;30.72;97429.50;4734869;30;1079;-78
2022/08/27 12:05:45;;;;;;;;;;;;;;;22.50;30.49;97433.69;4734928;30;1004;-78
2022/08/27 12:08:28;;;;;;;;;;;;;;;22.25;30.85;97429.78;4735207;30;942;-78
2022/08/27 12:11:11;;;;;;;;;;;;;;;22.38;30.39;97421.19;4794213;29;1903;-78
2022/08/27 12:13:55;;;;;;;;;;;;;;;22.32;30.55;97412.50;4824277;29;1073;-78
2022/08/27 12:16:40;;;;;;;;;;;;;;;22.55;30.23;97424.59;4824366;29;949;-78
2022/08/27 12:19:12;;;;;;;;;;;;;;;22.62;30.14;97418.63;4837017;29;963;-78
2022/08/27 12:21:56;;;;;;;;;;;;;;;22.47;30.47;97412.72;4823926;29;978;-78
2022/08/27 12:24:40;;;;;;;;;;;;;;;22.07;31.11;97415.47;4824013;29;1056;-78
2022/08/27 12:27:16;;;;;;;;;;;;;;;22.51;30.37;97410.53;4886811;29;952;-78
2022/08/27 12:30:01;;;;;;;;;;;;;;;22.49;30.19;97415.13;4920686;29;1357;-78
2022/08/27 12:32:33;;;;;;;;;;;;;;;22.48;30.41;97419.97;4935548;29;1914;-79
2022/08/27 12:34:59;;;;;;;;;;;;;;;22.40;30.50;97420.72;4935936;29;999;-79
2022/08/27 12:37:26;;;;;;;;;;;;;;;22.45;30.34;97420.13;4936376;29;879;-78
2022/08/27 12:39:52;;;;;;;;;;;;;;;22.25;30.54;97412.78;4936131;29;1036;-78
2022/08/27 12:42:18;;;;;;;;;;;;;;;22.34;30.58;97421.34;4920648;29;1172;-77
2022/08/27 12:44:43;;;;;;;;;;;;;;;22.24;30.78;97414.03;4920652;29;1461;-79
2022/08/27 12:47:10;;;;;;;;;;;;;;;22.33;30.73;97414.09;4920613;29;932;-78
2022/08/27 12:49:56;;;;;;;;;;;;;;;22.29;30.60;97407.78;4920774;29;949;-78
2022/08/27 12:52:33;;;;;;;;;;;;;;;22.30;30.73;97417.06;4935266;29;1914;-78
2022/08/27 12:55:17;;;;;;;;;;;;;;;22.51;30.27;97423.94;4958614;29;991;-77
2022/08/27 12:57:46;;;;;;;;;;;;;;;22.63;29.83;97417.38;4958496;29;1089;-78
2022/08/27 13:00:18;;;;;;;;;;;;;;;22.44;30.16;97424.22;4958508;29;952;-78
2022/08/27 13:02:53;;;;;;;;;;;;;;;22.41;30.38;97427.97;4920088;29;979;-78
2022/08/27 13:05:19;;;;;;;;;;;;;;;22.47;30.29;97431.78;4920296;29;994;-78
2022/08/27 13:07:45;;;;;;;;;;;;;;;22.44;30.24;97430.69;4920478;29;1169;-78
2022/08/27 13:10:13;;;;;;;;;;;;;;;22.42;30.21;97440.91;4904730;29;964;-77